Time;durP1;ratioP1;P1;durP2;ratioP2;P2;SDS_P1;SDS_P2;PMS_P1;PMS_P2;Temp;Humidity;BMP_temperature;BMP_pressure;BME280_temperature;BME280_humidity;BME280_pressure;Samples;Min_cycle;Max_cycle;Signal;HPM_P1;HPM_P2
2023/05/08 00:00:29;;;;;;;1.43;0.90;;;16.90;98.20;;;;;;5097783;28;20464;-80
2023/05/08 00:02:55;;;;;;;1.50;0.93;;;16.90;98.20;;;;;;5099349;27;20486;-80
2023/05/08 00:05:22;;;;;;;1.50;1.10;;;16.90;98.20;;;;;;5098307;28;20551;-80
2023/05/08 00:07:52;;;;;;;1.50;0.90;;;16.90;98.20;;;;;;5102841;27;20491;-80
2023/05/08 00:10:19;;;;;;;1.50;1.00;;;16.80;98.20;;;;;;5097130;28;20474;-80
2023/05/08 00:12:46;;;;;;;1.50;0.90;;;16.80;98.20;;;;;;5094641;27;20481;-81
2023/05/08 00:15:13;;;;;;;1.50;1.00;;;16.80;98.20;;;;;;5100050;28;20483;-80
2023/05/08 00:17:39;;;;;;;1.50;0.90;;;16.80;98.20;;;;;;5095557;27;20479;-81
2023/05/08 00:20:07;;;;;;;1.50;1.00;;;16.80;98.20;;;;;;5101203;28;20827;-80
2023/05/08 00:22:34;;;;;;;1.50;1.00;;;16.80;98.20;;;;;;5097019;28;20487;-81
2023/05/08 00:25:04;;;;;;;1.50;1.00;;;16.80;98.20;;;;;;5100085;28;20460;-81
2023/05/08 00:27:31;;;;;;;1.50;1.00;;;16.80;98.20;;;;;;5094869;27;20573;-81
2023/05/08 00:30:00;;;;;;;1.50;0.90;;;16.80;98.20;;;;;;5096387;28;20457;-82
2023/05/08 00:32:30;;;;;;;1.50;1.00;;;16.80;98.20;;;;;;5101685;27;21001;-81
2023/05/08 00:34:57;;;;;;;1.50;0.90;;;16.80;98.20;;;;;;5100075;28;20483;-80
2023/05/08 00:37:24;;;;;;;1.50;1.00;;;16.70;98.20;;;;;;5097121;27;20555;-80
2023/05/08 00:39:53;;;;;;;1.47;0.90;;;16.70;98.20;;;;;;5105765;28;21037;-80
2023/05/08 00:42:31;;;;;;;1.50;1.00;;;16.60;98.20;;;;;;5096638;28;20478;-80
2023/05/08 00:45:03;;;;;;;1.50;1.00;;;16.60;98.20;;;;;;5092632;28;20464;-80
2023/05/08 00:47:31;;;;;;;1.50;1.00;;;16.60;98.20;;;;;;5094206;28;20488;-80
2023/05/08 00:50:04;;;;;;;1.50;1.00;;;16.60;98.20;;;;;;5093777;28;20468;-79
2023/05/08 00:52:33;;;;;;;1.50;0.97;;;16.60;98.20;;;;;;5101927;28;21030;-80
2023/05/08 00:55:05;;;;;;;1.50;0.90;;;16.50;98.20;;;;;;5094088;28;20511;-81
2023/05/08 00:57:38;;;;;;;1.50;0.90;;;16.50;98.20;;;;;;5093627;28;20514;-80
2023/05/08 01:00:06;;;;;;;1.50;1.00;;;16.50;98.20;;;;;;5091136;28;20461;-80
2023/05/08 01:02:37;;;;;;;1.50;0.90;;;16.50;98.20;;;;;;5093515;27;20490;-80
2023/05/08 01:05:08;;;;;;;1.47;0.90;;;16.50;98.20;;;;;;5088751;28;20505;-81
2023/05/08 01:07:34;;;;;;;1.50;1.00;;;16.50;98.20;;;;;;5098438;28;20512;-80
2023/05/08 01:10:02;;;;;;;1.50;1.00;;;16.50;98.20;;;;;;5107310;28;20550;-81
2023/05/08 01:12:47;;;;;;;1.50;0.97;;;16.40;98.20;;;;;;5101269;27;20516;-81
2023/05/08 01:15:24;;;;;;;1.50;0.90;;;16.40;98.20;;;;;;5097082;28;20534;-80
2023/05/08 01:18:02;;;;;;;1.50;1.10;;;16.40;98.20;;;;;;5109880;27;20541;-80
2023/05/08 01:20:37;;;;;;;1.43;0.90;;;16.40;98.20;;;;;;5104712;28;20455;-81
2023/05/08 01:23:39;;;;;;;1.50;1.00;;;16.40;98.20;;;;;;5102145;27;20921;-80
2023/05/08 01:27:01;;;;;;;1.50;1.10;;;16.40;98.20;;;;;;5086223;27;20491;-80
2023/05/08 01:30:07;;;;;;;1.50;1.10;;;16.40;98.20;;;;;;5008707;28;20480;-81
2023/05/08 01:32:38;;;;;;;1.50;1.00;;;16.40;98.20;;;;;;5006174;28;20832;-80
2023/05/08 01:35:21;;;;;;;1.50;0.90;;;16.50;98.20;;;;;;5073719;28;20926;-80
2023/05/08 01:38:05;;;;;;;1.50;1.00;;;16.50;98.20;;;;;;5095970;27;21046;-79
2023/05/08 01:40:35;;;;;;;1.50;0.90;;;16.40;98.20;;;;;;5091947;28;20511;-81
2023/05/08 01:43:14;;;;;;;1.50;0.90;;;16.40;98.20;;;;;;5094646;27;20467;-80
2023/05/08 01:45:45;;;;;;;1.47;0.90;;;16.40;98.20;;;;;;5089669;28;20821;-80
2023/05/08 01:48:17;;;;;;;1.50;1.10;;;16.30;98.20;;;;;;5078688;28;20483;-80
2023/05/08 01:50:47;;;;;;;1.50;0.93;;;16.30;98.20;;;;;;5097452;28;20455;-81
2023/05/08 01:53:23;;;;;;;1.50;1.00;;;16.30;98.20;;;;;;5079573;28;20475;-80
2023/05/08 01:55:54;;;;;;;1.47;0.90;;;16.30;98.20;;;;;;5082229;28;21285;-80
2023/05/08 01:58:24;;;;;;;1.50;1.00;;;16.30;98.20;;;;;;5100753;28;20530;-80
2023/05/08 02:00:51;;;;;;;1.50;0.93;;;16.20;98.20;;;;;;5083231;28;20461;-80
2023/05/08 02:03:21;;;;;;;1.50;1.00;;;16.30;98.20;;;;;;5094494;28;20461;-80
2023/05/08 02:05:50;;;;;;;1.50;0.90;;;16.30;98.20;;;;;;5079674;28;20444;-80
2023/05/08 02:08:22;;;;;;;1.50;0.90;;;16.30;98.20;;;;;;5104760;27;20477;-80
2023/05/08 02:10:51;;;;;;;1.50;0.93;;;16.30;98.20;;;;;;5078102;28;20456;-79
2023/05/08 02:13:20;;;;;;;1.47;1.00;;;16.20;98.20;;;;;;5098207;27;20457;-80
2023/05/08 02:15:49;;;;;;;1.47;0.90;;;16.30;98.20;;;;;;5079099;28;20851;-80
2023/05/08 02:18:23;;;;;;;1.50;1.00;;;16.20;98.20;;;;;;5103511;28;20480;-80
2023/05/08 02:20:53;;;;;;;1.50;0.90;;;16.20;98.20;;;;;;5078344;28;20459;-79
2023/05/08 02:23:22;;;;;;;1.50;1.00;;;16.20;98.20;;;;;;5105933;27;20460;-80
2023/05/08 02:25:58;;;;;;;1.50;0.90;;;16.20;98.20;;;;;;5084890;28;20539;-80
2023/05/08 02:28:24;;;;;;;1.50;1.00;;;16.20;98.20;;;;;;5099786;28;20476;-80
2023/05/08 02:30:54;;;;;;;1.50;0.90;;;16.10;98.20;;;;;;5084919;28;20938;-80
2023/05/08 02:33:23;;;;;;;1.50;1.00;;;16.10;98.20;;;;;;5094998;28;20460;-80
2023/05/08 02:35:51;;;;;;;1.50;1.00;;;16.10;98.20;;;;;;5085318;28;20487;-80
2023/05/08 02:38:21;;;;;;;1.50;0.90;;;16.10;98.20;;;;;;5098581;28;20579;-80
2023/05/08 02:40:52;;;;;;;1.50;1.00;;;16.10;98.20;;;;;;5076182;28;20462;-80
2023/05/08 02:43:19;;;;;;;1.50;0.90;;;16.10;98.20;;;;;;5096775;28;21293;-80
2023/05/08 02:45:50;;;;;;;1.50;1.00;;;16.10;98.20;;;;;;5090102;28;20506;-80
2023/05/08 02:48:24;;;;;;;1.50;1.00;;;16.10;98.20;;;;;;5096648;28;20484;-79
2023/05/08 02:50:58;;;;;;;1.50;0.90;;;16.10;98.20;;;;;;5076301;28;20456;-80
2023/05/08 02:53:31;;;;;;;1.50;1.00;;;16.10;98.20;;;;;;5101400;27;20466;-80
2023/05/08 02:56:05;;;;;;;1.50;1.00;;;16.10;98.20;;;;;;5080578;28;20480;-80
2023/05/08 02:58:42;;;;;;;1.50;1.00;;;16.00;98.20;;;;;;5094086;28;20985;-79
2023/05/08 03:01:19;;;;;;;1.50;0.97;;;16.00;98.20;;;;;;5080563;28;20507;-79
2023/05/08 03:03:54;;;;;;;1.50;1.00;;;16.00;98.20;;;;;;5099733;27;20547;-80
2023/05/08 03:06:26;;;;;;;1.50;0.90;;;16.00;98.20;;;;;;5078294;28;20486;-81
2023/05/08 03:08:59;;;;;;;1.50;0.90;;;15.90;98.20;;;;;;5091714;28;20730;-80
2023/05/08 03:11:31;;;;;;;1.50;1.10;;;15.90;98.20;;;;;;5068890;28;21039;-79
2023/05/08 03:14:02;;;;;;;1.50;1.00;;;15.90;98.20;;;;;;5087947;28;20541;-79
2023/05/08 03:16:34;;;;;;;1.50;0.90;;;15.90;98.20;;;;;;5072561;28;20559;-79
2023/05/08 03:19:20;;;;;;;1.50;1.00;;;15.90;98.20;;;;;;5084851;28;21018;-79
2023/05/08 03:21:48;;;;;;;1.50;1.00;;;15.90;98.20;;;;;;5076023;28;20480;-79
2023/05/08 03:24:17;;;;;;;1.50;0.90;;;15.80;98.20;;;;;;5087129;28;20552;-79
2023/05/08 03:26:47;;;;;;;1.50;1.00;;;15.80;98.20;;;;;;5079638;28;20485;-79
2023/05/08 03:29:16;;;;;;;1.50;1.00;;;15.70;98.20;;;;;;5090045;28;20559;-79
2023/05/08 03:31:44;;;;;;;1.50;1.00;;;15.70;98.20;;;;;;5080781;28;20472;-79
2023/05/08 03:34:15;;;;;;;1.50;1.00;;;15.70;98.20;;;;;;5088464;28;20503;-79
2023/05/08 03:36:42;;;;;;;1.50;1.00;;;15.70;98.20;;;;;;5076253;28;20488;-79
2023/05/08 03:39:09;;;;;;;1.50;1.00;;;15.60;98.20;;;;;;5089734;28;20575;-79
2023/05/08 03:41:36;;;;;;;1.50;1.00;;;15.60;98.20;;;;;;5075906;28;20480;-79
2023/05/08 03:44:04;;;;;;;1.50;1.00;;;15.60;98.20;;;;;;5092846;28;20451;-79
2023/05/08 03:46:31;;;;;;;1.50;1.00;;;15.50;98.20;;;;;;5075905;28;20515;-79
2023/05/08 03:49:00;;;;;;;1.50;0.90;;;15.50;98.20;;;;;;5088174;28;20493;-80
2023/05/08 03:51:28;;;;;;;1.50;1.00;;;15.50;98.20;;;;;;5079482;28;20535;-78
2023/05/08 03:53:55;;;;;;;1.50;1.00;;;15.50;98.20;;;;;;5092146;28;20461;-78
2023/05/08 03:56:22;;;;;;;1.50;1.00;;;15.40;98.20;;;;;;5079310;28;20479;-79
2023/05/08 03:58:56;;;;;;;1.50;1.10;;;15.40;98.20;;;;;;5097287;28;20498;-79
2023/05/08 04:01:28;;;;;;;1.50;1.00;;;15.40;98.20;;;;;;5077560;28;20558;-79
2023/05/08 04:04:00;;;;;;;1.50;0.90;;;15.30;98.20;;;;;;5094951;28;20560;-79
2023/05/08 04:06:34;;;;;;;1.50;1.00;;;15.30;98.20;;;;;;5079506;28;20483;-79
2023/05/08 04:09:08;;;;;;;1.50;0.90;;;15.30;98.20;;;;;;5096906;28;20785;-78
2023/05/08 04:11:42;;;;;;;1.57;1.07;;;15.30;98.20;;;;;;5079614;28;20476;-78
2023/05/08 04:14:13;;;;;;;1.50;1.10;;;15.30;98.20;;;;;;5085229;28;20456;-79
2023/05/08 04:16:48;;;;;;;1.50;1.00;;;15.30;98.20;;;;;;5073955;28;20523;-79
2023/05/08 04:19:19;;;;;;;1.50;1.00;;;15.30;98.20;;;;;;5083972;28;20578;-79
2023/05/08 04:21:50;;;;;;;1.50;1.10;;;15.30;98.20;;;;;;5084341;28;20469;-79
2023/05/08 04:24:19;;;;;;;1.50;1.00;;;15.20;98.20;;;;;;5088936;27;20554;-79
2023/05/08 04:26:46;;;;;;;1.50;1.00;;;15.20;98.20;;;;;;5079731;28;20614;-78
2023/05/08 04:29:14;;;;;;;1.50;1.00;;;15.20;98.20;;;;;;5090238;28;20916;-79
2023/05/08 04:31:41;;;;;;;1.50;1.00;;;15.20;98.20;;;;;;5080446;28;20885;-78
2023/05/08 04:34:09;;;;;;;1.50;1.07;;;15.20;98.20;;;;;;5092125;28;20515;-78
2023/05/08 04:36:36;;;;;;;1.50;1.00;;;15.20;98.20;;;;;;5079008;28;20479;-78
2023/05/08 04:39:04;;;;;;;1.50;1.00;;;15.20;98.20;;;;;;5087268;28;20484;-78
2023/05/08 04:41:31;;;;;;;1.50;1.00;;;15.20;98.20;;;;;;5079234;28;20559;-79
2023/05/08 04:43:58;;;;;;;1.50;1.00;;;15.20;98.20;;;;;;5094079;28;20457;-79
2023/05/08 04:46:25;;;;;;;1.50;0.90;;;15.20;98.20;;;;;;5084062;28;21122;-78
2023/05/08 04:48:52;;;;;;;1.50;1.00;;;15.20;98.20;;;;;;5095704;28;20499;-78
2023/05/08 04:51:19;;;;;;;1.50;0.93;;;15.20;98.20;;;;;;5085063;28;20479;-78
2023/05/08 04:53:46;;;;;;;1.53;1.03;;;15.20;98.20;;;;;;5101734;28;20491;-78
2023/05/08 04:56:14;;;;;;;1.50;0.90;;;15.10;98.20;;;;;;5084451;28;20503;-78
2023/05/08 04:58:42;;;;;;;1.50;1.00;;;15.10;98.20;;;;;;5100358;28;20469;-78
2023/05/08 05:01:09;;;;;;;1.50;1.10;;;15.10;98.20;;;;;;5068700;28;20512;-78
2023/05/08 05:03:36;;;;;;;1.47;1.00;;;15.10;98.20;;;;;;5089559;28;20461;-77
2023/05/08 05:06:03;;;;;;;1.50;1.00;;;15.10;98.20;;;;;;5076608;28;20458;-78
2023/05/08 05:08:32;;;;;;;1.50;1.00;;;15.10;98.20;;;;;;5092575;28;20987;-79
2023/05/08 05:10:59;;;;;;;1.50;1.00;;;15.10;98.20;;;;;;5073661;28;20460;-78
2023/05/08 05:13:28;;;;;;;1.50;0.90;;;15.10;98.20;;;;;;5092632;28;20462;-78
2023/05/08 05:15:55;;;;;;;1.50;0.90;;;15.10;98.20;;;;;;5071947;28;20514;-78
2023/05/08 05:18:22;;;;;;;1.50;1.00;;;15.10;98.20;;;;;;5094073;28;20901;-78
2023/05/08 05:20:49;;;;;;;1.50;0.90;;;15.10;98.20;;;;;;5081780;28;20543;-78
2023/05/08 05:23:16;;;;;;;1.50;1.00;;;15.20;98.20;;;;;;5091447;28;20467;-79
2023/05/08 05:25:44;;;;;;;1.50;1.00;;;15.20;98.20;;;;;;5083382;28;20496;-79
2023/05/08 05:28:11;;;;;;;1.50;0.90;;;15.20;98.20;;;;;;5073551;28;20489;-78
2023/05/08 05:30:40;;;;;;;1.50;1.00;;;15.20;98.20;;;;;;5086275;28;20478;-79
2023/05/08 05:33:07;;;;;;;1.50;1.00;;;15.20;98.20;;;;;;5083703;28;20472;-78
2023/05/08 05:35:42;;;;;;;1.50;0.93;;;15.20;98.20;;;;;;5087835;28;20491;-79
2023/05/08 05:38:09;;;;;;;1.50;1.00;;;15.20;98.20;;;;;;5084410;28;20557;-78
2023/05/08 05:40:36;;;;;;;3.60;1.63;;;15.30;98.20;;;;;;5086245;28;20472;-78
2023/05/08 05:43:06;;;;;;;1.50;1.00;;;15.30;98.20;;;;;;5081688;28;20480;-79
2023/05/08 05:45:33;;;;;;;1.53;1.10;;;15.30;98.20;;;;;;5071216;28;20563;-79
2023/05/08 05:48:02;;;;;;;1.50;1.00;;;15.40;98.20;;;;;;5080463;28;20574;-79
2023/05/08 05:50:29;;;;;;;1.50;1.00;;;15.40;98.20;;;;;;5080297;28;20502;-78
2023/05/08 05:52:57;;;;;;;1.50;1.00;;;15.40;98.20;;;;;;5082952;28;20476;-79
2023/05/08 05:55:24;;;;;;;1.50;0.90;;;15.50;98.20;;;;;;5088990;28;20468;-78
2023/05/08 05:57:51;;;;;;;1.50;0.90;;;15.50;98.20;;;;;;5088546;28;20545;-80
2023/05/08 06:00:43;;;;;;;1.50;0.90;;;15.60;98.20;;;;;;5087948;28;20464;-80
2023/05/08 06:03:15;;;;;;;1.50;0.90;;;15.60;98.20;;;;;;4945243;28;20484;-80
2023/05/08 06:05:52;;;;;;;1.50;1.00;;;15.60;98.20;;;;;;4982932;28;20888;-80
2023/05/08 06:08:35;;;;;;;1.50;0.90;;;15.70;98.20;;;;;;4949121;28;20498;-80
2023/05/08 07:42:00;;;;;;;1.50;0.90;;;17.50;98.20;;;;;;4961000;28;20864;-81
2023/05/08 07:44:28;;;;;;;1.50;1.00;;;17.60;98.20;;;;;;4961393;28;20470;-83
2023/05/08 07:46:55;;;;;;;1.50;0.90;;;17.70;98.20;;;;;;4964805;28;20489;-80
2023/05/08 07:49:23;;;;;;;1.50;1.00;;;17.80;98.20;;;;;;4976886;28;20543;-80
2023/05/08 07:51:50;;;;;;;1.50;0.90;;;18.00;98.20;;;;;;4969065;28;20498;-82
2023/05/08 07:54:17;;;;;;;1.50;0.90;;;18.10;98.20;;;;;;4978370;28;20468;-82
2023/05/08 07:56:44;;;;;;;1.50;0.90;;;18.30;98.20;;;;;;4967302;28;20868;-81
2023/05/08 07:59:13;;;;;;;1.53;0.97;;;18.40;98.20;;;;;;4980045;28;20474;-82
2023/05/08 08:01:42;;;;;;;1.53;1.00;;;18.40;98.20;;;;;;4967204;28;20544;-80
2023/05/08 08:04:09;;;;;;;1.50;1.00;;;18.50;98.20;;;;;;4980440;28;20863;-83
2023/05/08 08:06:36;;;;;;;1.50;0.90;;;18.60;98.20;;;;;;4970369;28;20484;-81
2023/05/08 08:09:03;;;;;;;1.50;0.90;;;18.70;98.20;;;;;;4978141;28;20798;-79
2023/05/08 08:11:30;;;;;;;1.50;0.90;;;18.80;98.20;;;;;;4969131;28;21065;-80
2023/05/08 08:13:58;;;;;;;1.50;0.90;;;19.00;98.20;;;;;;4980083;28;20943;-80
2023/05/08 08:16:27;;;;;;;1.50;0.90;;;19.10;98.20;;;;;;4980374;28;20467;-79
2023/05/08 08:18:54;;;;;;;1.50;0.90;;;19.30;98.20;;;;;;4982450;28;20508;-79
2023/05/08 08:21:21;;;;;;;1.50;0.90;;;19.40;98.20;;;;;;4970270;28;20862;-80
2023/05/08 08:23:48;;;;;;;1.50;0.90;;;19.50;98.20;;;;;;4978848;28;20866;-80
2023/05/08 08:26:15;;;;;;;1.50;0.90;;;19.70;98.20;;;;;;4970773;28;20881;-79
2023/05/08 08:28:42;;;;;;;1.50;0.90;;;19.80;98.20;;;;;;4980623;28;20526;-80
2023/05/08 08:31:09;;;;;;;1.50;0.90;;;19.80;98.20;;;;;;4963616;28;20613;-78
2023/05/08 08:33:38;;;;;;;1.60;1.00;;;19.80;98.20;;;;;;4977537;28;20962;-79
2023/05/08 08:36:06;;;;;;;1.50;0.90;;;19.80;98.20;;;;;;4971816;28;20493;-81
2023/05/08 08:38:33;;;;;;;1.53;0.90;;;19.70;98.20;;;;;;4977213;28;20490;-82
2023/05/08 08:41:00;;;;;;;1.50;0.90;;;19.60;98.20;;;;;;4967993;28;20473;-82
2023/05/08 08:43:27;;;;;;;1.50;0.90;;;19.60;98.20;;;;;;4985227;28;20557;-82
2023/05/08 08:45:55;;;;;;;1.50;0.90;;;19.70;98.20;;;;;;4976890;28;20469;-78
2023/05/08 08:48:28;;;;;;;1.50;0.90;;;19.80;98.20;;;;;;4988914;28;20790;-80
2023/05/08 08:51:02;;;;;;;1.50;0.90;;;19.90;98.20;;;;;;4977003;28;20540;-83
2023/05/08 08:53:35;;;;;;;1.53;0.90;;;20.00;98.20;;;;;;4977682;28;20479;-78
2023/05/08 08:56:04;;;;;;;1.50;0.90;;;20.10;98.20;;;;;;4968362;28;20465;-81
2023/05/08 08:58:36;;;;;;;1.57;1.10;;;20.00;98.20;;;;;;4993384;28;20499;-82
2023/05/08 09:01:07;;;;;;;1.50;0.90;;;20.00;98.20;;;;;;4968687;28;20524;-81
2023/05/08 09:03:34;;;;;;;1.50;0.90;;;20.00;98.20;;;;;;4977693;28;21075;-81
2023/05/08 09:06:03;;;;;;;1.50;0.80;;;20.00;98.20;;;;;;4970365;28;20462;-82
2023/05/08 09:08:31;;;;;;;1.50;0.90;;;20.10;98.20;;;;;;4984062;28;20461;-81
2023/05/08 09:11:01;;;;;;;1.60;1.10;;;20.20;98.20;;;;;;4966448;28;20465;-82
2023/05/08 09:13:32;;;;;;;1.50;0.90;;;20.30;98.20;;;;;;4980644;28;20847;-82
2023/05/08 09:16:00;;;;;;;1.50;0.90;;;20.40;98.20;;;;;;4995251;28;20927;-82
2023/05/08 09:18:27;;;;;;;1.60;1.10;;;20.60;98.20;;;;;;4981844;28;21025;-84
2023/05/08 09:20:54;;;;;;;1.50;0.90;;;20.80;98.20;;;;;;4970735;28;20469;-82
2023/05/08 09:23:23;;;;;;;1.50;0.90;;;21.20;98.20;;;;;;4983095;28;20489;-79
2023/05/08 09:25:50;;;;;;;1.50;0.87;;;21.30;98.20;;;;;;4971980;28;20477;-81
2023/05/08 09:28:18;;;;;;;1.50;0.90;;;21.40;98.20;;;;;;4985624;28;20536;-80
2023/05/08 09:30:50;;;;;;;1.50;0.90;;;21.50;98.20;;;;;;4979290;28;20514;-81
2023/05/08 09:33:18;;;;;;;1.50;0.80;;;21.50;98.20;;;;;;4977669;28;20515;-82
2023/05/08 09:35:47;;;;;;;1.50;0.90;;;21.40;98.20;;;;;;4972821;28;20507;-80
2023/05/08 09:38:34;;;;;;;1.50;0.90;;;21.40;98.20;;;;;;4972371;28;20571;-80
2023/05/08 09:41:09;;;;;;;2.43;2.10;;;21.50;98.20;;;;;;4972956;28;20564;-81
2023/05/08 09:43:37;;;;;;;1.50;0.90;;;21.50;98.20;;;;;;4989382;28;20470;-82
2023/05/08 09:46:22;;;;;;;1.50;0.90;;;21.50;98.20;;;;;;4977954;28;20958;-80
2023/05/08 09:48:49;;;;;;;1.47;0.90;;;21.80;98.20;;;;;;4980277;28;20468;-79
2023/05/08 09:51:17;;;;;;;1.50;0.90;;;21.80;98.20;;;;;;4981446;28;20513;-82
2023/05/08 09:53:46;;;;;;;1.50;0.90;;;21.80;98.20;;;;;;4988714;28;21046;-79
2023/05/08 09:56:13;;;;;;;1.50;0.90;;;21.80;98.20;;;;;;4974216;28;20521;-81
2023/05/08 09:58:41;;;;;;;1.50;0.90;;;21.80;98.20;;;;;;4984724;28;20489;-80
2023/05/08 10:01:28;;;;;;;1.47;0.80;;;21.70;98.20;;;;;;4985040;28;20474;-83
2023/05/08 10:03:56;;;;;;;1.47;0.90;;;21.80;98.20;;;;;;4990838;28;20565;-83
2023/05/08 10:06:31;;;;;;;1.50;0.90;;;21.80;98.20;;;;;;4978698;28;20488;-81
2023/05/08 10:09:26;;;;;;;1.50;0.90;;;21.90;98.20;;;;;;4992278;28;20471;-83
2023/05/08 10:14:58;;;;;;;1.50;0.80;;;22.00;98.20;;;;;;4987607;28;20965;-83
2023/05/08 10:17:43;;;;;;;1.50;0.90;;;22.00;98.20;;;;;;4987675;28;20495;-86
2023/05/08 10:20:14;;;;;;;1.50;0.90;;;21.90;98.20;;;;;;4992528;28;20460;-85
2023/05/08 10:22:44;;;;;;;1.50;1.00;;;21.80;98.20;;;;;;4988822;28;20512;-83
2023/05/08 10:25:16;;;;;;;1.47;0.90;;;21.70;98.20;;;;;;4994923;28;20494;-80
2023/05/08 10:27:50;;;;;;;1.47;0.90;;;21.60;98.20;;;;;;4986771;28;20477;-82
2023/05/08 10:30:20;;;;;;;1.50;0.90;;;21.50;98.20;;;;;;4981944;28;20473;-84
2023/05/08 10:32:54;;;;;;;1.47;0.90;;;21.50;98.20;;;;;;5007755;28;20488;-82
2023/05/08 10:35:23;;;;;;;1.50;0.90;;;21.60;98.20;;;;;;4992119;28;20469;-80
2023/05/08 10:37:55;;;;;;;1.50;0.90;;;21.60;98.20;;;;;;4994769;28;20485;-85
2023/05/08 10:40:28;;;;;;;1.50;0.90;;;21.60;98.20;;;;;;4987559;28;20564;-84
2023/05/08 10:42:57;;;;;;;1.50;0.90;;;21.50;98.20;;;;;;4984527;28;20505;-86
2023/05/08 10:45:31;;;;;;;1.50;0.90;;;21.30;98.20;;;;;;4988819;28;20892;-80
2023/05/08 10:48:11;;;;;;;1.50;1.00;;;21.20;98.20;;;;;;4970266;28;20574;-81
2023/05/08 10:50:51;;;;;;;1.50;0.90;;;21.10;98.20;;;;;;4981393;28;20621;-84
2023/05/08 10:53:25;;;;;;;1.47;0.90;;;21.10;98.20;;;;;;4964232;28;21106;-83
2023/05/08 10:55:59;;;;;;;1.47;0.83;;;21.10;98.20;;;;;;4976560;28;20468;-85
2023/05/08 10:58:31;;;;;;;1.47;0.90;;;21.00;98.20;;;;;;4991239;28;20562;-85
2023/05/08 11:01:30;;;;;;;;;;;;;;;;;;;;;
2023/05/08 11:03:57;;;;;;;1.50;0.90;;;20.80;98.20;;;;;;4995739;28;20514;-83
2023/05/08 11:06:45;;;;;;;1.77;1.27;;;20.90;98.20;;;;;;4984372;28;20484;-83
2023/05/08 11:09:21;;;;;;;1.43;0.90;;;21.00;98.20;;;;;;4985631;28;20464;-85
2023/05/08 11:11:59;;;;;;;1.50;0.90;;;21.00;98.20;;;;;;4984315;28;20829;-85
2023/05/08 11:14:28;;;;;;;1.50;0.90;;;20.90;98.20;;;;;;4982979;28;20815;-86
2023/05/08 11:17:05;;;;;;;1.47;0.90;;;20.90;98.20;;;;;;4981734;28;20530;-84
2023/05/08 11:19:33;;;;;;;2.67;1.77;;;20.90;98.20;;;;;;4984289;28;20914;-84
2023/05/08 11:22:21;;;;;;;1.50;1.17;;;20.90;98.20;;;;;;4985514;28;20482;-82
2023/05/08 11:24:57;;;;;;;1.47;0.90;;;20.90;98.20;;;;;;4987316;28;20467;-83
2023/05/08 11:28:06;;;;;;;1.47;0.90;;;21.00;98.20;;;;;;4992252;28;20840;-83
2023/05/08 11:30:40;;;;;;;1.50;0.90;;;21.10;98.20;;;;;;4971081;28;20478;-80
2023/05/08 11:33:36;;;;;;;2.43;1.10;;;21.10;98.20;;;;;;4947120;28;20489;-83
2023/05/08 11:36:13;;;;;;;1.47;0.90;;;21.10;98.20;;;;;;4952858;28;20470;-81
2023/05/08 11:38:42;;;;;;;1.43;0.90;;;21.10;98.20;;;;;;4955760;28;20500;-81
2023/05/08 11:41:11;;;;;;;1.47;0.90;;;21.10;98.20;;;;;;4955914;28;20807;-82
2023/05/08 11:44:15;;;;;;;1.50;0.90;;;21.40;98.20;;;;;;4954595;28;20474;-83
2023/05/08 11:46:52;;;;;;;1.47;0.90;;;21.50;98.20;;;;;;4947266;28;20834;-83
2023/05/08 11:49:21;;;;;;;1.50;0.90;;;21.90;98.20;;;;;;4961808;28;20474;-79
2023/05/08 11:51:53;;;;;;;1.50;0.90;;;22.10;98.20;;;;;;4957810;28;20485;-84
2023/05/08 11:54:23;;;;;;;1.50;0.80;;;22.00;97.60;;;;;;4958457;28;20472;-82
2023/05/08 11:56:51;;;;;;;1.50;0.90;;;22.00;98.20;;;;;;4945926;28;20577;-81
2023/05/08 11:59:18;;;;;;;1.57;1.13;;;22.10;98.20;;;;;;4958291;28;20513;-85
2023/05/08 12:01:48;;;;;;;1.50;0.80;;;22.20;97.60;;;;;;4951976;28;20558;-85
2023/05/08 12:04:16;;;;;;;1.47;0.80;;;22.40;97.30;;;;;;4955195;28;20970;-81
2023/05/08 12:06:47;;;;;;;1.50;0.90;;;22.40;96.00;;;;;;4948254;28;20793;-82
2023/05/08 12:09:16;;;;;;;1.50;0.90;;;22.60;97.20;;;;;;4963648;28;20458;-83
2023/05/08 12:11:45;;;;;;;1.50;1.00;;;22.90;96.30;;;;;;4953716;28;20485;-82
2023/05/08 12:14:13;;;;;;;1.50;0.90;;;23.20;93.90;;;;;;4957020;28;20855;-83
2023/05/08 12:16:41;;;;;;;1.47;0.80;;;23.30;94.70;;;;;;4971580;28;20479;-82
2023/05/08 12:19:14;;;;;;;1.47;0.90;;;23.20;94.00;;;;;;4992086;28;20490;-82
2023/05/08 12:21:47;;;;;;;1.50;0.90;;;23.00;93.90;;;;;;4952792;28;20489;-84
2023/05/08 12:24:17;;;;;;;1.50;1.10;;;22.80;96.50;;;;;;4957466;28;20483;-83
2023/05/08 12:26:49;;;;;;;1.50;0.80;;;22.50;97.50;;;;;;4950519;28;20496;-83
2023/05/08 12:29:19;;;;;;;1.50;0.90;;;22.30;98.00;;;;;;4962723;28;20462;-84
2023/05/08 12:31:47;;;;;;;1.50;0.90;;;21.90;98.20;;;;;;4952173;28;21018;-85
2023/05/08 12:34:16;;;;;;;1.47;0.90;;;21.50;98.20;;;;;;4978819;28;20470;-79
2023/05/08 12:36:43;;;;;;;3.30;3.00;;;21.40;98.20;;;;;;4950076;28;20482;-84
2023/05/08 12:39:13;;;;;;;1.47;0.90;;;21.30;98.20;;;;;;4967940;28;20495;-83
2023/05/08 12:41:47;;;;;;;1.50;0.90;;;21.40;98.20;;;;;;4956951;28;21464;-84
2023/05/08 12:44:23;;;;;;;1.70;1.23;;;21.50;98.20;;;;;;4961896;28;20461;-85
2023/05/08 12:46:53;;;;;;;1.47;0.80;;;21.30;98.20;;;;;;4948826;28;20492;-83
2023/05/08 12:49:31;;;;;;;1.47;0.80;;;21.20;98.20;;;;;;4960585;28;20481;-86
2023/05/08 12:52:08;;;;;;;1.80;1.53;;;21.10;98.20;;;;;;4947830;28;20490;-83
2023/05/08 12:55:26;;;;;;;1.47;0.90;;;20.90;98.20;;;;;;4961216;28;20470;-83
2023/05/08 12:58:01;;;;;;;1.50;0.90;;;20.90;98.20;;;;;;4952634;28;20490;-81
2023/05/08 13:00:39;;;;;;;1.50;0.90;;;21.30;98.20;;;;;;4948215;28;20468;-81
2023/05/08 13:03:12;;;;;;;1.47;0.90;;;21.20;98.20;;;;;;4952424;28;20892;-85
2023/05/08 13:05:44;;;;;;;1.50;0.90;;;21.10;98.20;;;;;;4966874;28;20478;-83
2023/05/08 13:08:12;;;;;;;1.50;0.90;;;21.10;98.20;;;;;;4941743;28;20489;-84
2023/05/08 13:10:49;;;;;;;1.67;1.57;;;21.10;98.20;;;;;;4968716;28;20458;-84
2023/05/08 13:13:20;;;;;;;3.33;1.87;;;21.20;98.20;;;;;;4939526;28;20477;-86
2023/05/08 13:15:48;;;;;;;1.50;0.90;;;21.30;98.20;;;;;;4949695;28;20585;-82
2023/05/08 13:18:17;;;;;;;1.50;0.90;;;21.10;98.20;;;;;;4960467;28;20999;-80
2023/05/08 13:20:46;;;;;;;1.50;0.90;;;21.00;98.20;;;;;;4962709;28;20829;-84
2023/05/08 13:23:16;;;;;;;1.50;0.90;;;20.90;98.20;;;;;;4952535;28;20962;-83
2023/05/08 13:25:43;;;;;;;1.50;0.90;;;20.70;98.20;;;;;;4958325;28;20477;-84
2023/05/08 13:28:10;;;;;;;1.47;0.90;;;20.70;98.20;;;;;;4966741;28;20873;-82
2023/05/08 13:30:38;;;;;;;1.50;0.90;;;20.80;98.20;;;;;;4959053;28;20531;-83
2023/05/08 13:33:06;;;;;;;1.50;0.90;;;20.80;98.20;;;;;;4960689;28;20504;-85
2023/05/08 13:35:33;;;;;;;1.47;0.90;;;20.60;98.20;;;;;;4968749;28;20531;-83
2023/05/08 13:38:02;;;;;;;1.50;1.10;;;20.80;98.20;;;;;;4959408;28;20490;-86
2023/05/08 13:40:30;;;;;;;1.43;0.90;;;21.00;98.20;;;;;;4969952;28;20663;-88
2023/05/08 13:42:57;;;;;;;1.47;0.90;;;21.10;98.20;;;;;;4965268;28;20532;-84
2023/05/08 13:45:24;;;;;;;1.47;0.90;;;21.20;98.20;;;;;;4962110;28;20488;-84
2023/05/08 13:47:51;;;;;;;1.77;1.40;;;21.50;98.20;;;;;;4952886;28;20777;-86
2023/05/08 13:50:20;;;;;;;1.47;0.80;;;22.00;98.20;;;;;;4965532;28;20462;-83
2023/05/08 13:52:47;;;;;;;1.50;0.90;;;22.50;98.20;;;;;;4958654;28;20584;-84
2023/05/08 13:55:16;;;;;;;1.47;0.90;;;22.80;98.00;;;;;;4964590;28;20875;-84
2023/05/08 13:57:43;;;;;;;1.43;0.90;;;23.20;97.30;;;;;;4961024;28;20478;-85
2023/05/08 14:00:12;;;;;;;1.50;0.90;;;23.40;95.80;;;;;;4956835;28;20661;-80
2023/05/08 14:02:39;;;;;;;2.27;1.77;;;23.30;95.60;;;;;;4953277;28;20487;-80
2023/05/08 14:05:07;;;;;;;1.50;0.90;;;23.30;95.50;;;;;;4960735;28;20494;-83
2023/05/08 14:07:35;;;;;;;1.47;0.80;;;23.50;96.00;;;;;;4955574;28;20493;-79
2023/05/08 14:10:02;;;;;;;1.50;0.90;;;23.80;94.30;;;;;;4962033;28;20461;-83
2023/05/08 14:12:34;;;;;;;1.50;0.80;;;23.80;92.80;;;;;;4951924;28;20582;-82
2023/05/08 14:15:03;;;;;;;1.50;0.90;;;23.70;93.80;;;;;;4957613;28;20788;-83
2023/05/08 14:17:33;;;;;;;1.50;1.10;;;23.70;95.10;;;;;;4953195;28;21001;-83
2023/05/08 14:20:02;;;;;;;1.50;0.80;;;23.80;94.50;;;;;;4961908;28;20885;-82
2023/05/08 14:22:30;;;;;;;1.50;0.90;;;23.70;94.20;;;;;;4954226;28;20494;-86
2023/05/08 14:25:03;;;;;;;1.47;0.90;;;23.70;94.60;;;;;;4958911;28;20466;-82
2023/05/08 14:27:35;;;;;;;1.50;0.90;;;23.90;94.20;;;;;;4951708;28;20489;-83
2023/05/08 14:30:07;;;;;;;1.50;0.80;;;23.60;94.60;;;;;;4956878;28;20544;-83
2023/05/08 14:32:34;;;;;;;1.50;0.90;;;23.60;95.00;;;;;;4947732;28;20499;-83
2023/05/08 14:35:01;;;;;;;1.60;1.20;;;23.70;94.60;;;;;;4957608;28;20474;-83
2023/05/08 14:37:30;;;;;;;1.43;0.90;;;23.70;94.10;;;;;;4954756;28;20492;-86
2023/05/08 14:39:58;;;;;;;1.50;0.90;;;23.60;93.90;;;;;;4961379;28;20524;-81
2023/05/08 14:42:26;;;;;;;1.47;0.80;;;23.30;95.40;;;;;;4953781;28;20553;-83